Toledo, Iowa
Current Conditions -  °F | °C
As of 11:53 AM on Thursday 30 Oct 2014 (Local Time) from KMIW Reporting Station
Clear Clear  
Wind Chill: 12°   Ceiling: Unl
Heat Index: 12°   Visibility: 10mi
Dew Point:   Wind: 6mph
Humidity: 55%   Direction: 160°SSE
Pressure: 30.03"   Gusts: NA
Location:  42°N, 92.58°W
Report Text: KMIW 301653Z AUTO 16005KT 10SM CLR 12/03 A3003 RMK AO2 SLP175 T01220033
Loading
Personal Weather Stations






























Interactive Weather Map
Tropical Storm Tracking
New forecast layout! Learn more

10-Day Weather Forecast

Advertisements
Track Severe Weather on mobile